sensor_id;sensor_type;location;lat;lon;timestamp;P1;durP1;ratioP1;P2;durP2;ratioP2
7571;SDS011;3827;49.928;8.548;2023-05-23T00:01:37;42.08;;;31.10;;
7571;SDS011;3827;49.928;8.548;2023-05-23T00:04:04;41.70;;;32.33;;
7571;SDS011;3827;49.928;8.548;2023-05-23T00:06:31;43.03;;;33.15;;
7571;SDS011;3827;49.928;8.548;2023-05-23T00:09:00;43.88;;;33.72;;
7571;SDS011;3827;49.928;8.548;2023-05-23T00:11:27;40.25;;;31.13;;
7571;SDS011;3827;49.928;8.548;2023-05-23T00:13:53;39.10;;;29.70;;
7571;SDS011;3827;49.928;8.548;2023-05-23T00:16:21;41.30;;;31.58;;
7571;SDS011;3827;49.928;8.548;2023-05-23T00:18:49;34.10;;;26.83;;
7571;SDS011;3827;49.928;8.548;2023-05-23T00:21:17;40.75;;;31.33;;
7571;SDS011;3827;49.928;8.548;2023-05-23T00:23:44;38.45;;;30.08;;
7571;SDS011;3827;49.928;8.548;2023-05-23T00:26:11;40.67;;;30.75;;
7571;SDS011;3827;49.928;8.548;2023-05-23T00:28:37;37.80;;;29.73;;
7571;SDS011;3827;49.928;8.548;2023-05-23T00:31:04;36.90;;;29.75;;
7571;SDS011;3827;49.928;8.548;2023-05-23T00:33:31;35.10;;;28.60;;
7571;SDS011;3827;49.928;8.548;2023-05-23T00:35:59;36.08;;;29.50;;
7571;SDS011;3827;49.928;8.548;2023-05-23T00:38:26;35.37;;;28.33;;
7571;SDS011;3827;49.928;8.548;2023-05-23T00:40:53;37.17;;;28.83;;
7571;SDS011;3827;49.928;8.548;2023-05-23T00:43:20;33.05;;;27.35;;
7571;SDS011;3827;49.928;8.548;2023-05-23T00:45:47;32.10;;;26.50;;
7571;SDS011;3827;49.928;8.548;2023-05-23T00:48:14;33.50;;;27.20;;
7571;SDS011;3827;49.928;8.548;2023-05-23T00:50:41;32.78;;;25.77;;
7571;SDS011;3827;49.928;8.548;2023-05-23T00:53:10;30.08;;;24.35;;
7571;SDS011;3827;49.928;8.548;2023-05-23T00:55:38;31.35;;;24.63;;
7571;SDS011;3827;49.928;8.548;2023-05-23T00:58:05;26.52;;;22.10;;
7571;SDS011;3827;49.928;8.548;2023-05-23T01:00:32;26.50;;;22.33;;
7571;SDS011;3827;49.928;8.548;2023-05-23T01:02:59;25.43;;;22.17;;
7571;SDS011;3827;49.928;8.548;2023-05-23T01:05:27;31.27;;;26.33;;
7571;SDS011;3827;49.928;8.548;2023-05-23T01:07:54;30.92;;;25.52;;
7571;SDS011;3827;49.928;8.548;2023-05-23T01:10:22;30.45;;;25.08;;
7571;SDS011;3827;49.928;8.548;2023-05-23T01:12:55;28.10;;;24.05;;
7571;SDS011;3827;49.928;8.548;2023-05-23T01:15:32;25.98;;;23.17;;
7571;SDS011;3827;49.928;8.548;2023-05-23T01:18:06;26.15;;;23.30;;
7571;SDS011;3827;49.928;8.548;2023-05-23T01:20:37;25.23;;;22.47;;
7571;SDS011;3827;49.928;8.548;2023-05-23T01:23:12;24.38;;;21.75;;
7571;SDS011;3827;49.928;8.548;2023-05-23T01:26:17;25.55;;;22.08;;
7571;SDS011;3827;49.928;8.548;2023-05-23T01:29:01;24.17;;;21.63;;
7571;SDS011;3827;49.928;8.548;2023-05-23T01:31:34;25.02;;;21.80;;
7571;SDS011;3827;49.928;8.548;2023-05-23T01:34:02;25.25;;;21.48;;
7571;SDS011;3827;49.928;8.548;2023-05-23T01:36:31;26.02;;;21.70;;
7571;SDS011;3827;49.928;8.548;2023-05-23T01:39:00;23.23;;;20.73;;
7571;SDS011;3827;49.928;8.548;2023-05-23T01:41:27;24.75;;;19.95;;
7571;SDS011;3827;49.928;8.548;2023-05-23T01:43:54;23.95;;;21.42;;
7571;SDS011;3827;49.928;8.548;2023-05-23T01:46:22;21.70;;;19.23;;
7571;SDS011;3827;49.928;8.548;2023-05-23T01:48:50;23.90;;;21.27;;
7571;SDS011;3827;49.928;8.548;2023-05-23T01:51:18;24.08;;;19.92;;
7571;SDS011;3827;49.928;8.548;2023-05-23T01:53:46;22.55;;;20.10;;
7571;SDS011;3827;49.928;8.548;2023-05-23T01:56:14;24.63;;;21.15;;
7571;SDS011;3827;49.928;8.548;2023-05-23T01:58:40;24.15;;;21.52;;
7571;SDS011;3827;49.928;8.548;2023-05-23T02:01:07;23.30;;;20.80;;
7571;SDS011;3827;49.928;8.548;2023-05-23T02:03:36;26.15;;;22.77;;
7571;SDS011;3827;49.928;8.548;2023-05-23T02:06:03;22.52;;;19.90;;
7571;SDS011;3827;49.928;8.548;2023-05-23T02:08:30;19.45;;;17.45;;
7571;SDS011;3827;49.928;8.548;2023-05-23T02:10:57;20.83;;;18.42;;
7571;SDS011;3827;49.928;8.548;2023-05-23T02:13:23;24.20;;;21.65;;
7571;SDS011;3827;49.928;8.548;2023-05-23T02:15:50;22.50;;;20.10;;
7571;SDS011;3827;49.928;8.548;2023-05-23T02:18:17;24.63;;;21.95;;
7571;SDS011;3827;49.928;8.548;2023-05-23T02:20:45;25.13;;;22.52;;
7571;SDS011;3827;49.928;8.548;2023-05-23T02:23:12;24.03;;;21.43;;
7571;SDS011;3827;49.928;8.548;2023-05-23T02:25:39;20.23;;;18.23;;
7571;SDS011;3827;49.928;8.548;2023-05-23T02:28:05;21.83;;;19.43;;
7571;SDS011;3827;49.928;8.548;2023-05-23T02:30:32;17.75;;;15.95;;
7571;SDS011;3827;49.928;8.548;2023-05-23T02:33:03;22.45;;;20.05;;
7571;SDS011;3827;49.928;8.548;2023-05-23T02:35:30;21.20;;;19.00;;
7571;SDS011;3827;49.928;8.548;2023-05-23T02:37:58;24.25;;;21.65;;
7571;SDS011;3827;49.928;8.548;2023-05-23T02:40:25;24.23;;;21.60;;
7571;SDS011;3827;49.928;8.548;2023-05-23T02:42:52;25.60;;;22.83;;
7571;SDS011;3827;49.928;8.548;2023-05-23T02:45:21;24.88;;;22.35;;
7571;SDS011;3827;49.928;8.548;2023-05-23T02:47:48;24.15;;;21.55;;
7571;SDS011;3827;49.928;8.548;2023-05-23T02:50:15;24.30;;;21.75;;
7571;SDS011;3827;49.928;8.548;2023-05-23T02:52:42;23.50;;;21.10;;
7571;SDS011;3827;49.928;8.548;2023-05-23T02:55:10;22.23;;;19.92;;
7571;SDS011;3827;49.928;8.548;2023-05-23T02:57:37;21.45;;;19.25;;
7571;SDS011;3827;49.928;8.548;2023-05-23T03:00:04;19.88;;;17.40;;
7571;SDS011;3827;49.928;8.548;2023-05-23T03:02:33;19.38;;;17.38;;
7571;SDS011;3827;49.928;8.548;2023-05-23T03:05:00;19.40;;;17.45;;
7571;SDS011;3827;49.928;8.548;2023-05-23T03:07:27;18.08;;;16.23;;
7571;SDS011;3827;49.928;8.548;2023-05-23T03:09:57;18.02;;;16.17;;
7571;SDS011;3827;49.928;8.548;2023-05-23T03:12:26;16.70;;;15.00;;
7571;SDS011;3827;49.928;8.548;2023-05-23T03:14:53;18.10;;;15.60;;
7571;SDS011;3827;49.928;8.548;2023-05-23T03:17:20;16.67;;;14.93;;
7571;SDS011;3827;49.928;8.548;2023-05-23T03:19:47;16.23;;;14.50;;
7571;SDS011;3827;49.928;8.548;2023-05-23T03:22:13;15.63;;;14.05;;
7571;SDS011;3827;49.928;8.548;2023-05-23T03:24:40;14.82;;;13.23;;
7571;SDS011;3827;49.928;8.548;2023-05-23T03:27:07;14.75;;;13.10;;
7571;SDS011;3827;49.928;8.548;2023-05-23T03:29:35;14.48;;;12.98;;
7571;SDS011;3827;49.928;8.548;2023-05-23T03:32:02;14.85;;;12.55;;
7571;SDS011;3827;49.928;8.548;2023-05-23T03:34:29;13.70;;;12.23;;
7571;SDS011;3827;49.928;8.548;2023-05-23T03:36:57;13.70;;;11.93;;
7571;SDS011;3827;49.928;8.548;2023-05-23T03:39:23;11.23;;;10.13;;
7571;SDS011;3827;49.928;8.548;2023-05-23T03:41:50;11.88;;;10.07;;
7571;SDS011;3827;49.928;8.548;2023-05-23T03:44:17;10.57;;;9.48;;
7571;SDS011;3827;49.928;8.548;2023-05-23T03:46:45;10.68;;;9.55;;
7571;SDS011;3827;49.928;8.548;2023-05-23T03:49:12;10.75;;;9.68;;
7571;SDS011;3827;49.928;8.548;2023-05-23T03:51:39;12.30;;;11.00;;
7571;SDS011;3827;49.928;8.548;2023-05-23T03:54:05;12.50;;;11.20;;
7571;SDS011;3827;49.928;8.548;2023-05-23T03:56:32;12.30;;;10.30;;
7571;SDS011;3827;49.928;8.548;2023-05-23T03:58:59;13.05;;;11.60;;
7571;SDS011;3827;49.928;8.548;2023-05-23T04:01:26;12.73;;;11.15;;
7571;SDS011;3827;49.928;8.548;2023-05-23T04:03:54;14.65;;;13.15;;
7571;SDS011;3827;49.928;8.548;2023-05-23T04:06:21;15.00;;;13.47;;
7571;SDS011;3827;49.928;8.548;2023-05-23T04:08:48;14.50;;;13.00;;
7571;SDS011;3827;49.928;8.548;2023-05-23T04:11:15;16.80;;;12.50;;
7571;SDS011;3827;49.928;8.548;2023-05-23T04:13:42;12.60;;;11.27;;
7571;SDS011;3827;49.928;8.548;2023-05-23T04:16:12;13.13;;;11.70;;
7571;SDS011;3827;49.928;8.548;2023-05-23T04:18:39;14.05;;;11.63;;
7571;SDS011;3827;49.928;8.548;2023-05-23T04:21:08;14.52;;;12.75;;
7571;SDS011;3827;49.928;8.548;2023-05-23T04:23:35;15.15;;;13.32;;
7571;SDS011;3827;49.928;8.548;2023-05-23T04:26:02;14.70;;;13.18;;
7571;SDS011;3827;49.928;8.548;2023-05-23T04:28:29;14.68;;;13.18;;
7571;SDS011;3827;49.928;8.548;2023-05-23T04:30:56;14.50;;;13.00;;
7571;SDS011;3827;49.928;8.548;2023-05-23T04:33:23;15.30;;;13.60;;
7571;SDS011;3827;49.928;8.548;2023-05-23T04:35:52;14.82;;;13.27;;
7571;SDS011;3827;49.928;8.548;2023-05-23T04:38:20;15.35;;;13.75;;
7571;SDS011;3827;49.928;8.548;2023-05-23T04:40:49;15.77;;;14.17;;
7571;SDS011;3827;49.928;8.548;2023-05-23T04:43:16;16.25;;;14.63;;
7571;SDS011;3827;49.928;8.548;2023-05-23T04:45:43;15.30;;;13.70;;
7571;SDS011;3827;49.928;8.548;2023-05-23T04:48:10;15.10;;;13.57;;
7571;SDS011;3827;49.928;8.548;2023-05-23T04:50:41;15.67;;;14.07;;
7571;SDS011;3827;49.928;8.548;2023-05-23T04:53:08;14.70;;;13.30;;
7571;SDS011;3827;49.928;8.548;2023-05-23T04:55:36;13.95;;;12.55;;
7571;SDS011;3827;49.928;8.548;2023-05-23T04:58:03;14.33;;;12.93;;
7571;SDS011;3827;49.928;8.548;2023-05-23T05:00:30;15.17;;;13.67;;
7571;SDS011;3827;49.928;8.548;2023-05-23T05:02:56;14.70;;;13.20;;
7571;SDS011;3827;49.928;8.548;2023-05-23T05:05:23;13.85;;;12.55;;
7571;SDS011;3827;49.928;8.548;2023-05-23T05:07:50;13.90;;;12.60;;
7571;SDS011;3827;49.928;8.548;2023-05-23T05:10:17;13.90;;;12.60;;
7571;SDS011;3827;49.928;8.548;2023-05-23T05:12:46;14.35;;;12.95;;
7571;SDS011;3827;49.928;8.548;2023-05-23T05:15:15;13.13;;;11.90;;
7571;SDS011;3827;49.928;8.548;2023-05-23T05:17:42;12.52;;;11.32;;
7571;SDS011;3827;49.928;8.548;2023-05-23T05:20:09;12.82;;;11.60;;
7571;SDS011;3827;49.928;8.548;2023-05-23T05:22:37;12.93;;;11.70;;
7571;SDS011;3827;49.928;8.548;2023-05-23T05:25:05;12.53;;;11.23;;
7571;SDS011;3827;49.928;8.548;2023-05-23T05:27:33;12.40;;;11.20;;
7571;SDS011;3827;49.928;8.548;2023-05-23T05:30:03;12.27;;;11.07;;
7571;SDS011;3827;49.928;8.548;2023-05-23T05:32:31;12.20;;;11.03;;
7571;SDS011;3827;49.928;8.548;2023-05-23T05:34:58;12.00;;;10.90;;
7571;SDS011;3827;49.928;8.548;2023-05-23T05:37:25;12.52;;;11.25;;
7571;SDS011;3827;49.928;8.548;2023-05-23T05:39:52;12.20;;;10.98;;
7571;SDS011;3827;49.928;8.548;2023-05-23T05:42:19;11.87;;;10.77;;
7571;SDS011;3827;49.928;8.548;2023-05-23T05:44:46;11.27;;;10.18;;
7571;SDS011;3827;49.928;8.548;2023-05-23T05:47:15;11.98;;;10.77;;
7571;SDS011;3827;49.928;8.548;2023-05-23T05:49:41;12.30;;;11.10;;
7571;SDS011;3827;49.928;8.548;2023-05-23T05:52:09;12.63;;;11.43;;
7571;SDS011;3827;49.928;8.548;2023-05-23T05:54:36;11.68;;;10.57;;
7571;SDS011;3827;49.928;8.548;2023-05-23T05:57:03;11.80;;;10.70;;
7571;SDS011;3827;49.928;8.548;2023-05-23T05:59:30;12.85;;;11.65;;
7571;SDS011;3827;49.928;8.548;2023-05-23T06:01:57;11.38;;;10.18;;
7571;SDS011;3827;49.928;8.548;2023-05-23T06:04:25;11.40;;;10.30;;
7571;SDS011;3827;49.928;8.548;2023-05-23T06:06:52;10.68;;;9.70;;
7571;SDS011;3827;49.928;8.548;2023-05-23T06:09:19;10.27;;;9.38;;
7571;SDS011;3827;49.928;8.548;2023-05-23T06:11:45;9.50;;;8.70;;
7571;SDS011;3827;49.928;8.548;2023-05-23T06:14:12;9.27;;;8.38;;
7571;SDS011;3827;49.928;8.548;2023-05-23T06:16:39;9.00;;;8.20;;
7571;SDS011;3827;49.928;8.548;2023-05-23T06:19:06;8.10;;;7.40;;
7571;SDS011;3827;49.928;8.548;2023-05-23T06:21:34;7.70;;;6.90;;
7571;SDS011;3827;49.928;8.548;2023-05-23T06:24:01;7.75;;;7.00;;
7571;SDS011;3827;49.928;8.548;2023-05-23T06:26:28;7.53;;;6.82;;
7571;SDS011;3827;49.928;8.548;2023-05-23T06:28:54;7.18;;;6.57;;
7571;SDS011;3827;49.928;8.548;2023-05-23T06:31:21;6.68;;;6.07;;
7571;SDS011;3827;49.928;8.548;2023-05-23T06:33:48;6.60;;;5.90;;
7571;SDS011;3827;49.928;8.548;2023-05-23T06:36:15;6.95;;;6.25;;
7571;SDS011;3827;49.928;8.548;2023-05-23T06:38:43;6.75;;;6.10;;
7571;SDS011;3827;49.928;8.548;2023-05-23T06:41:10;6.63;;;5.93;;
7571;SDS011;3827;49.928;8.548;2023-05-23T06:43:36;6.35;;;5.85;;
7571;SDS011;3827;49.928;8.548;2023-05-23T06:46:03;5.93;;;5.43;;
7571;SDS011;3827;49.928;8.548;2023-05-23T06:48:30;6.23;;;5.73;;
7571;SDS011;3827;49.928;8.548;2023-05-23T06:50:57;6.97;;;6.00;;
7571;SDS011;3827;49.928;8.548;2023-05-23T06:53:24;6.17;;;5.67;;
7571;SDS011;3827;49.928;8.548;2023-05-23T06:55:52;6.20;;;5.60;;
7571;SDS011;3827;49.928;8.548;2023-05-23T06:58:20;6.38;;;5.88;;
7571;SDS011;3827;49.928;8.548;2023-05-23T07:00:49;5.97;;;5.50;;
7571;SDS011;3827;49.928;8.548;2023-05-23T07:03:15;5.47;;;5.05;;
7571;SDS011;3827;49.928;8.548;2023-05-23T07:05:42;5.40;;;5.00;;
7571;SDS011;3827;49.928;8.548;2023-05-23T07:08:09;5.68;;;5.25;;
7571;SDS011;3827;49.928;8.548;2023-05-23T07:10:37;6.13;;;5.60;;
7571;SDS011;3827;49.928;8.548;2023-05-23T07:13:06;6.32;;;5.80;;
7571;SDS011;3827;49.928;8.548;2023-05-23T07:15:33;6.50;;;6.00;;
7571;SDS011;3827;49.928;8.548;2023-05-23T07:18:00;6.43;;;5.82;;
7571;SDS011;3827;49.928;8.548;2023-05-23T07:20:27;6.10;;;5.60;;
7571;SDS011;3827;49.928;8.548;2023-05-23T07:22:53;6.35;;;5.85;;
7571;SDS011;3827;49.928;8.548;2023-05-23T07:25:21;7.35;;;6.00;;
7571;SDS011;3827;49.928;8.548;2023-05-23T07:27:48;6.78;;;6.18;;
7571;SDS011;3827;49.928;8.548;2023-05-23T07:30:18;6.85;;;6.25;;
7571;SDS011;3827;49.928;8.548;2023-05-23T07:32:45;7.25;;;6.65;;
7571;SDS011;3827;49.928;8.548;2023-05-23T07:35:12;6.73;;;6.17;;
7571;SDS011;3827;49.928;8.548;2023-05-23T07:37:39;7.95;;;7.20;;
7571;SDS011;3827;49.928;8.548;2023-05-23T07:40:06;7.28;;;6.68;;
7571;SDS011;3827;49.928;8.548;2023-05-23T07:42:34;7.30;;;6.70;;
7571;SDS011;3827;49.928;8.548;2023-05-23T07:45:01;7.15;;;6.55;;
7571;SDS011;3827;49.928;8.548;2023-05-23T07:47:30;7.60;;;6.90;;
7571;SDS011;3827;49.928;8.548;2023-05-23T07:49:57;6.70;;;6.15;;
7571;SDS011;3827;49.928;8.548;2023-05-23T07:52:26;5.70;;;5.20;;
7571;SDS011;3827;49.928;8.548;2023-05-23T07:54:54;5.45;;;5.05;;
7571;SDS011;3827;49.928;8.548;2023-05-23T07:57:20;5.20;;;4.80;;
7571;SDS011;3827;49.928;8.548;2023-05-23T07:59:48;5.88;;;5.38;;
7571;SDS011;3827;49.928;8.548;2023-05-23T08:02:15;5.22;;;4.82;;
7571;SDS011;3827;49.928;8.548;2023-05-23T08:04:43;4.57;;;4.25;;
7571;SDS011;3827;49.928;8.548;2023-05-23T08:07:10;4.37;;;4.00;;
7571;SDS011;3827;49.928;8.548;2023-05-23T08:09:37;3.60;;;3.30;;
7571;SDS011;3827;49.928;8.548;2023-05-23T08:12:05;3.72;;;3.42;;
7571;SDS011;3827;49.928;8.548;2023-05-23T08:14:32;3.37;;;3.17;;
7571;SDS011;3827;49.928;8.548;2023-05-23T08:16:59;3.50;;;3.30;;
7571;SDS011;3827;49.928;8.548;2023-05-23T08:19:26;3.80;;;3.50;;
7571;SDS011;3827;49.928;8.548;2023-05-23T08:21:54;4.00;;;3.63;;
7571;SDS011;3827;49.928;8.548;2023-05-23T08:24:21;3.40;;;3.10;;
7571;SDS011;3827;49.928;8.548;2023-05-23T08:26:48;3.17;;;2.97;;
7571;SDS011;3827;49.928;8.548;2023-05-23T08:29:15;3.45;;;2.95;;
7571;SDS011;3827;49.928;8.548;2023-05-23T08:31:42;3.20;;;2.90;;
7571;SDS011;3827;49.928;8.548;2023-05-23T08:34:09;3.30;;;3.10;;
7571;SDS011;3827;49.928;8.548;2023-05-23T08:36:36;3.50;;;3.30;;
7571;SDS011;3827;49.928;8.548;2023-05-23T08:39:05;3.40;;;3.20;;
7571;SDS011;3827;49.928;8.548;2023-05-23T08:41:31;3.10;;;2.90;;
7571;SDS011;3827;49.928;8.548;2023-05-23T08:44:00;3.50;;;3.20;;
7571;SDS011;3827;49.928;8.548;2023-05-23T08:46:26;3.40;;;3.10;;
7571;SDS011;3827;49.928;8.548;2023-05-23T08:48:55;3.35;;;3.15;;
7571;SDS011;3827;49.928;8.548;2023-05-23T08:51:24;3.27;;;3.07;;
7571;SDS011;3827;49.928;8.548;2023-05-23T08:53:52;3.13;;;2.83;;
7571;SDS011;3827;49.928;8.548;2023-05-23T08:56:21;2.90;;;2.70;;
7571;SDS011;3827;49.928;8.548;2023-05-23T08:58:49;3.08;;;2.88;;
7571;SDS011;3827;49.928;8.548;2023-05-23T09:01:18;3.00;;;2.80;;
7571;SDS011;3827;49.928;8.548;2023-05-23T09:03:46;2.90;;;2.70;;
7571;SDS011;3827;49.928;8.548;2023-05-23T09:06:14;3.25;;;2.92;;
7571;SDS011;3827;49.928;8.548;2023-05-23T09:08:42;3.00;;;2.80;;
7571;SDS011;3827;49.928;8.548;2023-05-23T09:11:10;3.28;;;3.08;;
7571;SDS011;3827;49.928;8.548;2023-05-23T09:13:40;3.50;;;3.22;;
7571;SDS011;3827;49.928;8.548;2023-05-23T09:16:07;3.35;;;3.15;;
7571;SDS011;3827;49.928;8.548;2023-05-23T09:18:36;3.00;;;2.80;;
7571;SDS011;3827;49.928;8.548;2023-05-23T09:21:03;3.33;;;3.05;;
7571;SDS011;3827;49.928;8.548;2023-05-23T09:23:31;2.60;;;2.40;;
7571;SDS011;3827;49.928;8.548;2023-05-23T09:26:00;2.63;;;2.42;;
7571;SDS011;3827;49.928;8.548;2023-05-23T09:28:28;2.45;;;2.05;;
7571;SDS011;3827;49.928;8.548;2023-05-23T09:30:59;2.55;;;2.35;;
7571;SDS011;3827;49.928;8.548;2023-05-23T09:33:34;2.17;;;2.08;;
7571;SDS011;3827;49.928;8.548;2023-05-23T09:36:02;2.72;;;2.53;;
7571;SDS011;3827;49.928;8.548;2023-05-23T09:38:30;2.47;;;2.37;;
7571;SDS011;3827;49.928;8.548;2023-05-23T09:40:57;2.70;;;2.50;;
7571;SDS011;3827;49.928;8.548;2023-05-23T09:43:24;2.88;;;2.67;;
7571;SDS011;3827;49.928;8.548;2023-05-23T09:45:53;2.95;;;2.70;;
7571;SDS011;3827;49.928;8.548;2023-05-23T09:48:28;2.92;;;2.72;;
7571;SDS011;3827;49.928;8.548;2023-05-23T09:50:56;2.90;;;2.70;;
7571;SDS011;3827;49.928;8.548;2023-05-23T09:53:23;3.00;;;2.80;;
7571;SDS011;3827;49.928;8.548;2023-05-23T09:55:50;2.90;;;2.70;;
7571;SDS011;3827;49.928;8.548;2023-05-23T09:58:18;2.95;;;2.75;;
7571;SDS011;3827;49.928;8.548;2023-05-23T10:00:46;2.70;;;2.50;;
7571;SDS011;3827;49.928;8.548;2023-05-23T10:03:15;2.67;;;2.47;;
7571;SDS011;3827;49.928;8.548;2023-05-23T10:05:48;2.65;;;2.45;;
7571;SDS011;3827;49.928;8.548;2023-05-23T10:08:18;2.90;;;2.70;;
7571;SDS011;3827;49.928;8.548;2023-05-23T10:13:56;3.00;;;2.80;;
7571;SDS011;3827;49.928;8.548;2023-05-23T10:16:27;2.80;;;2.60;;
7571;SDS011;3827;49.928;8.548;2023-05-23T10:19:02;2.80;;;2.60;;
7571;SDS011;3827;49.928;8.548;2023-05-23T10:21:34;3.00;;;2.80;;
7571;SDS011;3827;49.928;8.548;2023-05-23T10:24:04;2.80;;;2.60;;
7571;SDS011;3827;49.928;8.548;2023-05-23T10:26:33;3.10;;;2.80;;
7571;SDS011;3827;49.928;8.548;2023-05-23T10:29:00;2.50;;;2.40;;
7571;SDS011;3827;49.928;8.548;2023-05-23T10:31:29;2.70;;;2.50;;
7571;SDS011;3827;49.928;8.548;2023-05-23T10:33:59;2.70;;;2.50;;
7571;SDS011;3827;49.928;8.548;2023-05-23T10:36:31;3.00;;;2.70;;
7571;SDS011;3827;49.928;8.548;2023-05-23T10:39:07;2.90;;;2.70;;
7571;SDS011;3827;49.928;8.548;2023-05-23T10:41:42;3.10;;;2.90;;
7571;SDS011;3827;49.928;8.548;2023-05-23T10:44:15;2.75;;;2.55;;
7571;SDS011;3827;49.928;8.548;2023-05-23T10:46:49;3.30;;;2.95;;
7571;SDS011;3827;49.928;8.548;2023-05-23T10:49:18;3.05;;;2.85;;
7571;SDS011;3827;49.928;8.548;2023-05-23T10:51:47;2.88;;;2.67;;
7571;SDS011;3827;49.928;8.548;2023-05-23T10:54:16;4.43;;;3.40;;
7571;SDS011;3827;49.928;8.548;2023-05-23T10:56:44;3.40;;;3.10;;
7571;SDS011;3827;49.928;8.548;2023-05-23T10:59:18;3.00;;;2.80;;
7571;SDS011;3827;49.928;8.548;2023-05-23T11:01:48;3.25;;;2.95;;
7571;SDS011;3827;49.928;8.548;2023-05-23T11:04:23;3.30;;;2.90;;
7571;SDS011;3827;49.928;8.548;2023-05-23T11:06:53;3.20;;;3.00;;
7571;SDS011;3827;49.928;8.548;2023-05-23T11:09:21;3.80;;;3.50;;
7571;SDS011;3827;49.928;8.548;2023-05-23T11:11:51;3.83;;;3.53;;
7571;SDS011;3827;49.928;8.548;2023-05-23T11:14:19;4.15;;;3.85;;
7571;SDS011;3827;49.928;8.548;2023-05-23T11:16:56;4.28;;;3.88;;
7571;SDS011;3827;49.928;8.548;2023-05-23T11:19:24;4.05;;;3.75;;
7571;SDS011;3827;49.928;8.548;2023-05-23T11:21:54;4.78;;;4.38;;
7571;SDS011;3827;49.928;8.548;2023-05-23T11:24:23;4.30;;;3.90;;
7571;SDS011;3827;49.928;8.548;2023-05-23T11:27:14;4.00;;;3.60;;
7571;SDS011;3827;49.928;8.548;2023-05-23T11:29:44;4.35;;;3.97;;
7571;SDS011;3827;49.928;8.548;2023-05-23T11:32:21;4.55;;;4.15;;
7571;SDS011;3827;49.928;8.548;2023-05-23T11:34:48;4.35;;;4.03;;
7571;SDS011;3827;49.928;8.548;2023-05-23T11:37:17;4.60;;;4.18;;
7571;SDS011;3827;49.928;8.548;2023-05-23T11:39:44;4.18;;;3.88;;
7571;SDS011;3827;49.928;8.548;2023-05-23T11:42:11;3.88;;;3.58;;
7571;SDS011;3827;49.928;8.548;2023-05-23T11:44:38;3.85;;;3.45;;
7571;SDS011;3827;49.928;8.548;2023-05-23T11:47:05;4.22;;;3.83;;
7571;SDS011;3827;49.928;8.548;2023-05-23T11:49:34;3.65;;;3.35;;
7571;SDS011;3827;49.928;8.548;2023-05-23T11:52:02;3.72;;;3.30;;
7571;SDS011;3827;49.928;8.548;2023-05-23T11:54:32;3.58;;;3.28;;
7571;SDS011;3827;49.928;8.548;2023-05-23T11:56:59;4.13;;;3.30;;
7571;SDS011;3827;49.928;8.548;2023-05-23T11:59:26;3.80;;;3.20;;
7571;SDS011;3827;49.928;8.548;2023-05-23T12:01:53;3.70;;;3.40;;
7571;SDS011;3827;49.928;8.548;2023-05-23T12:04:20;3.60;;;3.30;;
7571;SDS011;3827;49.928;8.548;2023-05-23T12:06:48;3.40;;;3.20;;
7571;SDS011;3827;49.928;8.548;2023-05-23T12:09:15;2.97;;;2.67;;
7571;SDS011;3827;49.928;8.548;2023-05-23T12:11:44;2.40;;;2.20;;
7571;SDS011;3827;49.928;8.548;2023-05-23T12:14:14;2.60;;;2.40;;
7571;SDS011;3827;49.928;8.548;2023-05-23T12:16:42;1.80;;;1.70;;
7571;SDS011;3827;49.928;8.548;2023-05-23T12:19:10;2.50;;;2.30;;
7571;SDS011;3827;49.928;8.548;2023-05-23T12:21:41;2.20;;;2.00;;
7571;SDS011;3827;49.928;8.548;2023-05-23T12:24:13;2.40;;;2.20;;
7571;SDS011;3827;49.928;8.548;2023-05-23T12:26:47;3.10;;;2.10;;
7571;SDS011;3827;49.928;8.548;2023-05-23T12:29:15;2.40;;;2.28;;
7571;SDS011;3827;49.928;8.548;2023-05-23T12:31:46;2.67;;;2.47;;
7571;SDS011;3827;49.928;8.548;2023-05-23T12:34:14;2.60;;;2.40;;
7571;SDS011;3827;49.928;8.548;2023-05-23T12:36:41;2.55;;;2.35;;
7571;SDS011;3827;49.928;8.548;2023-05-23T12:39:09;2.55;;;2.35;;
7571;SDS011;3827;49.928;8.548;2023-05-23T12:41:37;2.90;;;2.70;;
7571;SDS011;3827;49.928;8.548;2023-05-23T12:44:09;3.50;;;3.20;;
7571;SDS011;3827;49.928;8.548;2023-05-23T12:46:38;2.47;;;2.28;;
7571;SDS011;3827;49.928;8.548;2023-05-23T12:49:05;2.50;;;2.30;;
7571;SDS011;3827;49.928;8.548;2023-05-23T12:51:32;2.00;;;1.88;;
7571;SDS011;3827;49.928;8.548;2023-05-23T12:53:58;2.25;;;2.15;;
7571;SDS011;3827;49.928;8.548;2023-05-23T12:56:26;2.28;;;2.10;;
7571;SDS011;3827;49.928;8.548;2023-05-23T12:58:52;2.08;;;1.98;;
7571;SDS011;3827;49.928;8.548;2023-05-23T13:01:20;1.95;;;1.85;;
7571;SDS011;3827;49.928;8.548;2023-05-23T13:03:48;1.98;;;1.77;;
7571;SDS011;3827;49.928;8.548;2023-05-23T13:06:15;2.17;;;1.80;;
7571;SDS011;3827;49.928;8.548;2023-05-23T13:08:42;2.43;;;1.97;;
7571;SDS011;3827;49.928;8.548;2023-05-23T13:11:09;2.55;;;2.35;;
7571;SDS011;3827;49.928;8.548;2023-05-23T13:13:36;1.92;;;1.83;;
7571;SDS011;3827;49.928;8.548;2023-05-23T13:16:03;2.28;;;2.10;;
7571;SDS011;3827;49.928;8.548;2023-05-23T13:18:32;2.30;;;2.10;;
7571;SDS011;3827;49.928;8.548;2023-05-23T13:20:59;2.30;;;2.10;;
7571;SDS011;3827;49.928;8.548;2023-05-23T13:23:26;2.30;;;2.20;;
7571;SDS011;3827;49.928;8.548;2023-05-23T13:25:53;2.40;;;2.00;;
7571;SDS011;3827;49.928;8.548;2023-05-23T13:28:22;1.90;;;1.80;;
7571;SDS011;3827;49.928;8.548;2023-05-23T13:30:49;1.90;;;1.80;;
7571;SDS011;3827;49.928;8.548;2023-05-23T13:33:16;1.70;;;1.60;;
7571;SDS011;3827;49.928;8.548;2023-05-23T13:35:45;1.95;;;1.85;;
7571;SDS011;3827;49.928;8.548;2023-05-23T13:38:13;1.92;;;1.83;;
7571;SDS011;3827;49.928;8.548;2023-05-23T13:40:40;1.98;;;1.88;;
7571;SDS011;3827;49.928;8.548;2023-05-23T13:43:07;2.28;;;2.08;;
7571;SDS011;3827;49.928;8.548;2023-05-23T13:45:34;2.25;;;2.05;;
7571;SDS011;3827;49.928;8.548;2023-05-23T13:48:00;2.47;;;2.28;;
7571;SDS011;3827;49.928;8.548;2023-05-23T13:50:27;2.40;;;2.20;;
7571;SDS011;3827;49.928;8.548;2023-05-23T13:52:56;2.40;;;2.20;;
7571;SDS011;3827;49.928;8.548;2023-05-23T13:55:22;2.53;;;2.33;;
7571;SDS011;3827;49.928;8.548;2023-05-23T13:57:49;2.35;;;2.20;;
7571;SDS011;3827;49.928;8.548;2023-05-23T14:00:16;2.40;;;2.20;;
7571;SDS011;3827;49.928;8.548;2023-05-23T14:02:44;2.70;;;2.50;;
7571;SDS011;3827;49.928;8.548;2023-05-23T14:05:11;3.35;;;2.92;;
7571;SDS011;3827;49.928;8.548;2023-05-23T14:07:38;3.28;;;2.97;;
7571;SDS011;3827;49.928;8.548;2023-05-23T14:10:07;2.90;;;2.60;;
7571;SDS011;3827;49.928;8.548;2023-05-23T14:12:34;3.38;;;2.97;;
7571;SDS011;3827;49.928;8.548;2023-05-23T14:15:01;3.70;;;3.10;;
7571;SDS011;3827;49.928;8.548;2023-05-23T14:17:29;3.50;;;3.20;;
7571;SDS011;3827;49.928;8.548;2023-05-23T14:19:55;2.92;;;2.70;;
7571;SDS011;3827;49.928;8.548;2023-05-23T14:22:22;3.10;;;2.90;;
7571;SDS011;3827;49.928;8.548;2023-05-23T14:24:49;4.25;;;3.05;;
7571;SDS011;3827;49.928;8.548;2023-05-23T14:27:17;4.57;;;3.38;;
7571;SDS011;3827;49.928;8.548;2023-05-23T14:29:45;3.92;;;3.40;;
7571;SDS011;3827;49.928;8.548;2023-05-23T14:32:13;3.45;;;3.15;;
7571;SDS011;3827;49.928;8.548;2023-05-23T14:34:40;4.90;;;3.22;;
7571;SDS011;3827;49.928;8.548;2023-05-23T14:37:07;3.78;;;3.45;;
7571;SDS011;3827;49.928;8.548;2023-05-23T14:39:34;3.88;;;3.55;;
7571;SDS011;3827;49.928;8.548;2023-05-23T14:42:01;4.10;;;3.70;;
7571;SDS011;3827;49.928;8.548;2023-05-23T14:44:29;4.20;;;3.58;;
7571;SDS011;3827;49.928;8.548;2023-05-23T14:46:56;4.00;;;3.70;;
7571;SDS011;3827;49.928;8.548;2023-05-23T14:49:23;5.18;;;4.47;;
7571;SDS011;3827;49.928;8.548;2023-05-23T14:51:50;4.43;;;4.03;;
7571;SDS011;3827;49.928;8.548;2023-05-23T14:54:17;4.90;;;4.40;;
7571;SDS011;3827;49.928;8.548;2023-05-23T14:56:43;5.20;;;4.53;;
7571;SDS011;3827;49.928;8.548;2023-05-23T14:59:10;5.03;;;4.53;;
7571;SDS011;3827;49.928;8.548;2023-05-23T15:01:39;5.25;;;4.60;;
7571;SDS011;3827;49.928;8.548;2023-05-23T15:04:06;7.40;;;5.30;;
7571;SDS011;3827;49.928;8.548;2023-05-23T15:06:33;5.87;;;4.47;;
7571;SDS011;3827;49.928;8.548;2023-05-23T15:09:00;6.50;;;4.78;;
7571;SDS011;3827;49.928;8.548;2023-05-23T15:11:27;5.05;;;4.55;;
7571;SDS011;3827;49.928;8.548;2023-05-23T15:13:54;5.05;;;4.55;;